Time;durP1;ratioP1;P1;durP2;ratioP2;P2;SDS_P1;SDS_P2;PMS_P1;PMS_P2;Temp;Humidity;BMP_temperature;BMP_pressure;BME280_temperature;BME280_humidity;BME280_pressure;Samples;Min_cycle;Max_cycle;Signal;HPM_P1;HPM_P2
2021/07/19 07:29:52;;;;;;;;;16.00;13.00;;;;;21.74;65.12;101769.13;5827483;24;46543;31
2021/07/19 07:32:18;;;;;;;;;17.00;12.00;;;;;21.79;64.86;101768.19;4770149;29;46034;-80
2021/07/19 07:34:44;;;;;;;;;19.33;13.67;;;;;21.80;64.80;101768.19;4770717;29;46684;-81
2021/07/19 07:37:12;;;;;;;;;15.33;14.33;;;;;21.84;64.61;101767.28;4771603;29;45412;-81
2021/07/19 07:39:41;;;;;;;;;16.67;14.33;;;;;21.82;64.48;101750.31;4771662;29;45296;-80
2021/07/19 07:42:07;;;;;;;;;14.33;13.33;;;;;21.91;64.36;101769.88;4771625;29;45337;-81
2021/07/19 07:44:33;;;;;;;;;15.33;13.33;;;;;21.95;64.38;101768.91;4771267;29;45370;-81
2021/07/19 07:46:58;;;;;;;;;14.00;11.33;;;;;21.99;64.74;101762.63;4755174;29;45473;-81
2021/07/19 07:49:26;;;;;;;;;14.33;12.67;;;;;22.01;65.01;101758.13;4771827;29;45335;-80
2021/07/19 07:51:52;;;;;;;;;16.33;13.67;;;;;22.05;65.09;101764.31;4771591;29;45448;-80
2021/07/19 07:54:18;;;;;;;;;13.67;13.00;;;;;22.07;64.51;101763.38;4771239;29;45440;-81
2021/07/19 07:56:44;;;;;;;;;15.00;12.00;;;;;22.12;65.06;101762.44;4771047;29;45461;-81
2021/07/19 07:59:09;;;;;;;;;16.33;13.00;;;;;22.15;65.19;101763.28;4771138;29;45348;-81
2021/07/19 08:01:35;;;;;;;;;13.33;13.33;;;;;22.18;64.42;101757.00;4771179;29;45394;-81
2021/07/19 08:04:00;;;;;;;;;13.00;11.33;;;;;22.23;64.50;101759.59;4771018;29;46958;-81
2021/07/19 08:06:25;;;;;;;;;20.33;14.00;;;;;22.23;64.95;101760.47;4771231;29;45238;-81
2021/07/19 08:08:51;;;;;;;;;14.67;12.33;;;;;22.29;64.38;101751.47;4771274;29;45472;-81
2021/07/19 08:11:16;;;;;;;;;14.33;14.33;;;;;22.32;64.79;101754.97;4773107;29;45204;-81
2021/07/19 08:17:10;;;;;;;;;11.67;10.33;;;;;22.34;64.75;101738.88;4760543;29;45400;-92
2021/07/19 08:20:29;;;;;;;;;12.33;9.00;;;;;22.51;63.76;101754.69;5068025;24;47205;-91
2021/07/19 08:29:54;;;;;;;;;16.67;12.00;;;;;22.82;63.60;101718.47;4935008;24;45964;-91
2021/07/19 08:37:47;;;;;;;;;10.33;10.00;;;;;23.50;62.88;101727.91;4809923;29;45548;-94
2021/07/19 08:45:23;;;;;;;;;11.33;9.67;;;;;24.16;61.62;101744.31;4865534;23;46552;-94
2021/07/19 08:47:51;;;;;;;;;11.33;10.67;;;;;24.62;60.50;101740.56;4814416;29;47363;-91
2021/07/19 08:50:20;;;;;;;;;11.00;10.00;;;;;25.03;60.33;101716.19;4830121;29;45414;-90
2021/07/19 08:52:48;;;;;;;;;14.00;10.33;;;;;25.29;58.42;101735.19;4816854;29;45254;-85
2021/07/19 08:55:15;;;;;;;;;12.00;12.00;;;;;25.44;58.24;101733.88;4812074;29;45328;-84
2021/07/19 08:57:44;;;;;;;;;12.33;12.00;;;;;25.58;58.26;101730.75;4826765;29;47391;-84
2021/07/19 09:00:10;;;;;;;;;11.00;10.33;;;;;25.81;56.53;101739.06;4828096;29;45268;-86
2021/07/19 09:02:37;;;;;;;;;12.33;10.00;;;;;25.99;56.16;101730.44;4828868;29;45323;-85
2021/07/19 09:05:03;;;;;;;;;16.33;11.33;;;;;26.29;55.18;101731.28;4829171;29;45207;-87
2021/07/19 09:07:28;;;;;;;;;8.00;8.00;;;;;26.63;54.63;101738.22;4828366;29;45752;-84
2021/07/19 09:09:53;;;;;;;;;12.00;11.67;;;;;27.02;53.95;101742.28;4828044;29;45450;-84
2021/07/19 09:12:35;;;;;;;;;13.33;9.67;;;;;27.50;52.44;101727.94;4828321;29;45386;-84
2021/07/19 10:41:13;;;;;;;;;10.50;9.00;;;;;33.24;42.34;101710.19;5845691;24;46077;31
2021/07/19 13:56:41;;;;;;;;;12.67;12.00;;;;;29.89;41.49;101589.47;5397451;24;46322;-85
2021/07/19 13:59:07;;;;;;;;;10.33;10.33;;;;;29.84;42.00;101594.28;4827473;29;45510;-85
2021/07/19 14:01:35;;;;;;;;;16.00;11.00;;;;;29.78;41.93;101600.88;4827923;29;45271;-81
2021/07/19 14:04:01;;;;;;;;;9.67;9.67;;;;;29.68;42.09;101589.63;4827576;29;45342;-84
2021/07/19 14:06:26;;;;;;;;;12.50;12.50;;;;;29.56;42.15;101574.84;4808589;29;46548;-85
2021/07/19 14:08:52;;;;;;;;;11.00;9.33;;;;;29.54;43.06;101592.13;4776818;29;45330;-85
2021/07/19 14:11:17;;;;;;;;;10.67;10.67;;;;;29.41;41.98;101586.44;4811580;29;45485;-86
2021/07/19 14:13:43;;;;;;;;;10.00;9.67;;;;;29.25;42.78;101588.06;4810790;29;45316;-85
2021/07/19 14:16:08;;;;;;;;;9.00;9.00;;;;;29.16;42.98;101583.13;4810453;29;48525;-84
2021/07/19 14:18:34;;;;;;;;;11.00;9.33;;;;;29.15;42.93;101597.59;4827088;29;45410;-84
2021/07/19 14:20:59;;;;;;;;;11.00;10.00;;;;;29.02;43.37;101576.50;4826907;29;45278;-84
2021/07/19 14:23:25;;;;;;;;;11.67;10.33;;;;;29.00;42.94;101582.94;4810723;29;45561;-84
2021/07/19 14:25:50;;;;;;;;;12.33;10.00;;;;;28.84;43.07;101563.84;4826842;29;46262;-84
2021/07/19 14:28:15;;;;;;;;;11.00;9.00;;;;;28.82;43.40;101573.84;4826884;29;45351;-84
2021/07/19 14:30:42;;;;;;;;;11.33;8.33;;;;;28.70;43.72;101562.69;4826788;29;45341;-87
2021/07/19 14:33:07;;;;;;;;;11.00;9.67;;;;;28.66;44.09;101569.19;4827262;29;45274;-84
2021/07/19 14:35:33;;;;;;;;;13.67;9.67;;;;;28.59;44.33;101574.00;4826588;29;45410;-85
2021/07/19 14:37:58;;;;;;;;;10.00;10.00;;;;;28.49;44.37;101562.69;4826875;29;45179;-84
2021/07/19 14:40:24;;;;;;;;;9.33;9.00;;;;;28.44;44.68;101573.75;4810173;29;45397;-84
2021/07/19 14:42:49;;;;;;;;;9.67;9.33;;;;;28.38;44.61;101570.41;4826696;29;45377;-84
2021/07/19 14:45:17;;;;;;;;;10.67;9.00;;;;;28.32;44.71;101566.16;4826690;29;47015;-84
2021/07/19 14:47:43;;;;;;;;;11.33;10.00;;;;;28.27;44.28;101569.06;4826468;29;45969;-84
2021/07/19 14:50:11;;;;;;;;;11.33;10.00;;;;;28.21;44.97;101558.53;4826548;29;45312;-84
2021/07/19 14:52:36;;;;;;;;;12.33;9.67;;;;;28.17;45.19;101556.91;4826600;29;45403;-84
2021/07/19 14:55:04;;;;;;;;;13.00;10.33;;;;;28.13;45.04;101550.75;4826256;29;46176;-84
2021/07/19 14:57:31;;;;;;;;;11.00;9.67;;;;;28.13;44.52;101560.69;4817354;29;45675;-84
2021/07/19 14:59:56;;;;;;;;;13.67;10.00;;;;;28.11;45.42;101563.47;4823960;29;45356;-84
2021/07/19 15:02:22;;;;;;;;;12.00;9.33;;;;;28.08;45.33;101561.78;4827324;29;45336;-84
2021/07/19 15:04:47;;;;;;;;;13.33;12.00;;;;;28.04;45.56;101552.03;4826147;29;46258;-85
2021/07/19 15:07:13;;;;;;;;;10.33;10.33;;;;;28.03;45.03;101558.38;4826302;29;45372;-85
2021/07/19 15:09:38;;;;;;;;;12.33;9.00;;;;;28.03;44.69;101555.66;4826902;29;45356;-85
2021/07/19 15:12:05;;;;;;;;;11.33;11.33;;;;;28.01;44.86;101546.75;4827737;29;45338;-84
2021/07/19 15:14:30;;;;;;;;;11.00;9.33;;;;;27.98;44.95;101547.75;4828465;29;45481;-85
2021/07/19 15:16:56;;;;;;;;;11.67;9.33;;;;;27.95;44.92;101547.03;4828300;29;45183;-84
2021/07/19 15:19:21;;;;;;;;;13.33;9.67;;;;;27.90;44.99;101549.91;4828665;29;45244;-85
2021/07/19 15:21:47;;;;;;;;;10.33;10.00;;;;;27.86;45.83;101545.59;4831973;29;45233;-85
2021/07/19 15:24:13;;;;;;;;;11.00;9.33;;;;;27.80;45.19;101544.03;4816866;29;45511;-83
2021/07/19 15:26:38;;;;;;;;;12.67;10.67;;;;;27.83;45.79;101549.34;4814539;29;45221;-87
2021/07/19 15:29:03;;;;;;;;;9.33;8.67;;;;;27.83;46.47;101541.22;4813119;29;45367;-80
2021/07/19 15:31:30;;;;;;;;;11.67;9.67;;;;;27.81;46.49;101537.72;4814318;29;45460;-81
2021/07/19 15:33:56;;;;;;;;;11.33;10.00;;;;;27.77;45.96;101541.50;4795292;29;46080;-83
2021/07/19 15:36:21;;;;;;;;;12.00;9.00;;;;;27.79;45.95;101553.13;4794542;29;45362;-82
2021/07/19 15:38:49;;;;;;;;;11.00;11.00;;;;;27.78;46.50;101548.63;4810903;29;45755;-81
2021/07/19 15:41:14;;;;;;;;;12.00;12.00;;;;;27.77;46.20;101554.13;4811024;29;45257;-83
2021/07/19 15:43:40;;;;;;;;;15.33;11.00;;;;;27.72;46.43;101543.47;4811167;29;45291;-83
2021/07/19 15:46:06;;;;;;;;;10.00;10.00;;;;;27.68;45.78;101544.53;4810976;29;45214;-83
2021/07/19 15:48:32;;;;;;;;;10.00;10.00;;;;;27.63;46.05;101537.50;4811051;29;45248;-86
2021/07/19 15:50:57;;;;;;;;;14.00;10.00;;;;;27.62;46.28;101541.16;4811499;29;45425;-83
2021/07/19 15:53:23;;;;;;;;;9.00;9.00;;;;;27.59;46.21;101526.91;4811152;29;45852;-84
2021/07/19 15:55:48;;;;;;;;;12.33;11.67;;;;;27.60;46.70;101536.78;4811226;29;45455;-83
2021/07/19 15:58:14;;;;;;;;;11.00;10.33;;;;;27.59;46.76;101540.41;4810886;29;45213;-83
2021/07/19 16:00:39;;;;;;;;;10.67;10.67;;;;;27.57;46.91;101534.19;4810875;29;45327;-83
2021/07/19 16:03:05;;;;;;;;;10.33;10.33;;;;;27.54;46.96;101535.19;4808344;29;47254;-85
2021/07/19 16:05:30;;;;;;;;;13.33;10.00;;;;;27.51;46.80;101538.91;4811665;29;45251;-83
2021/07/19 16:07:56;;;;;;;;;10.67;9.33;;;;;27.48;47.13;101524.66;4811520;29;45430;-83
2021/07/19 16:10:21;;;;;;;;;12.67;10.33;;;;;27.46;46.73;101530.13;4811850;29;45373;-84
2021/07/19 16:12:49;;;;;;;;;14.33;12.33;;;;;27.42;47.23;101519.50;4813575;29;45449;-86
2021/07/19 16:15:14;;;;;;;;;11.67;11.33;;;;;27.43;47.26;101526.69;4811811;29;45264;-86
2021/07/19 16:17:40;;;;;;;;;10.00;9.67;;;;;27.41;46.98;101521.34;4812364;29;45292;-87
2021/07/19 17:38:52;;;;;;;;;10.33;10.00;;;;;26.97;50.20;101479.88;4771225;29;46908;-82
2021/07/19 17:41:18;;;;;;;;;11.33;10.00;;;;;26.96;50.29;101479.94;4773369;29;45325;-84
2021/07/19 17:43:44;;;;;;;;;13.67;11.33;;;;;26.93;49.81;101487.22;4772351;29;45415;-83
2021/07/19 17:46:10;;;;;;;;;11.00;9.67;;;;;26.88;49.52;101481.16;4773338;29;45391;-82
2021/07/19 17:48:36;;;;;;;;;10.67;10.00;;;;;26.87;49.53;101490.16;4772952;29;46241;-82
2021/07/19 17:51:01;;;;;;;;;8.67;8.67;;;;;26.86;49.21;101483.03;4772606;29;45276;-83
2021/07/19 17:53:28;;;;;;;;;15.33;14.00;;;;;26.82;49.35;101495.75;4772881;29;45206;-83
2021/07/19 17:55:53;;;;;;;;;12.67;10.00;;;;;26.71;48.90;101479.13;4772899;29;45289;-83
2021/07/19 17:58:19;;;;;;;;;11.00;9.00;;;;;26.80;49.60;101496.75;4772705;29;45239;-84
2021/07/19 18:00:44;;;;;;;;;11.33;10.00;;;;;26.76;49.63;101501.38;4756711;29;45385;-82
2021/07/19 18:03:10;;;;;;;;;13.67;12.00;;;;;26.74;48.89;101491.59;4773027;29;45425;-83
2021/07/19 18:05:37;;;;;;;;;14.33;12.00;;;;;26.71;49.38;101496.16;4773124;29;45250;-82
2021/07/19 18:08:03;;;;;;;;;15.33;12.33;;;;;26.67;49.17;101493.66;4756423;29;45431;-83
2021/07/19 18:10:30;;;;;;;;;11.00;9.00;;;;;26.66;49.50;101498.16;4772330;29;45527;-83
2021/07/19 18:12:57;;;;;;;;;10.33;10.00;;;;;26.66;50.13;101498.16;4772391;29;45932;-82
2021/07/19 18:15:23;;;;;;;;;13.33;13.00;;;;;26.62;48.85;101485.75;4772789;29;45486;-82
2021/07/19 18:17:49;;;;;;;;;12.33;10.33;;;;;26.61;49.89;101502.84;4772438;29;46618;-82
2021/07/19 18:20:15;;;;;;;;;13.67;11.33;;;;;26.59;49.51;101505.59;4772463;29;45198;-83
2021/07/19 18:23:24;;;;;;;;;12.00;11.00;;;;;26.58;50.08;101508.38;4772555;29;45360;-83
2021/07/19 18:30:46;;;;;;;;;14.33;13.67;;;;;26.51;51.06;101512.22;4772321;29;45370;-82
2021/07/19 18:33:15;;;;;;;;;15.33;10.33;;;;;26.46;50.59;101499.78;4772356;29;45339;-82
2021/07/19 18:35:43;;;;;;;;;16.00;11.50;;;;;26.46;50.34;101505.19;4772160;29;45476;-82
2021/07/19 18:38:09;;;;;;;;;11.33;11.33;;;;;26.43;50.49;101502.63;4771840;29;46564;-82
2021/07/19 18:40:37;;;;;;;;;16.67;13.00;;;;;26.41;50.56;101499.13;4772289;29;45251;-82
2021/07/19 18:43:03;;;;;;;;;15.00;14.00;;;;;26.41;50.02;101511.69;4772192;29;45373;-82
2021/07/19 18:45:29;;;;;;;;;14.00;14.00;;;;;26.38;50.58;101504.56;4772375;29;45370;-82
2021/07/19 18:47:55;;;;;;;;;13.67;12.00;;;;;26.32;50.51;101500.28;4771769;29;46255;-83
2021/07/19 18:50:21;;;;;;;;;11.67;11.67;;;;;26.30;50.95;101499.47;4771765;29;45403;-82
2021/07/19 18:52:47;;;;;;;;;13.33;11.67;;;;;26.33;51.01;101509.25;4770933;29;45292;-83
2021/07/19 18:55:17;;;;;;;;;13.00;12.33;;;;;26.31;50.71;101503.06;4755859;29;45230;-82
2021/07/19 18:57:43;;;;;;;;;10.33;10.00;;;;;26.28;50.24;101500.47;4771729;29;47458;-82
2021/07/19 19:00:12;;;;;;;;;14.33;11.00;;;;;26.27;50.69;101504.97;4771744;29;45425;-83
2021/07/19 19:02:38;;;;;;;;;12.00;10.67;;;;;26.23;50.54;101506.91;4771976;29;45259;-82
2021/07/19 19:05:07;;;;;;;;;12.67;11.00;;;;;26.25;50.47;101504.13;4771904;29;45270;-82
2021/07/19 19:07:32;;;;;;;;;12.67;10.67;;;;;26.24;50.96;101505.97;4771904;29;45362;-82
2021/07/19 19:09:57;;;;;;;;;12.00;10.33;;;;;26.23;51.33;101514.97;4771736;29;45536;-82
2021/07/19 19:12:23;;;;;;;;;14.33;12.00;;;;;26.21;51.06;101507.88;4771826;29;45898;-83
2021/07/19 19:14:49;;;;;;;;;11.33;11.33;;;;;26.19;51.21;101510.63;4771907;29;45261;-83
2021/07/19 19:17:15;;;;;;;;;14.00;11.67;;;;;26.17;51.22;101511.63;4771362;29;46397;-83
2021/07/19 19:19:42;;;;;;;;;12.00;10.33;;;;;26.16;51.83;101513.47;4771303;29;45395;-83
2021/07/19 19:22:08;;;;;;;;;15.00;11.67;;;;;26.16;51.19;101515.28;4771550;29;45431;-82
2021/07/19 19:24:34;;;;;;;;;16.67;11.33;;;;;26.12;51.52;101507.28;4771724;29;45221;-83
2021/07/19 19:26:59;;;;;;;;;14.00;10.00;;;;;26.09;51.59;101503.81;4771477;29;46395;-82
2021/07/19 19:29:25;;;;;;;;;9.67;9.67;;;;;26.11;51.51;101515.44;4771439;29;45253;-82
